createdAt,value
2018-10-16T00:00:35.191Z,13.48
2018-10-16T00:01:35.097Z,13.35
2018-10-16T00:02:35.003Z,13.29
2018-10-16T00:03:34.929Z,13.38
2018-10-16T00:04:34.815Z,13.48
2018-10-16T00:05:34.719Z,13.39
2018-10-16T00:06:34.623Z,13.39
2018-10-16T00:07:34.529Z,13.44
2018-10-16T00:08:34.451Z,13.41
2018-10-16T00:09:34.342Z,13.29
2018-10-16T00:10:34.249Z,13.50
2018-10-16T00:11:34.156Z,13.43
2018-10-16T00:12:34.057Z,13.36
2018-10-16T00:13:33.984Z,13.50
2018-10-16T00:14:33.867Z,13.35
2018-10-16T00:15:33.782Z,13.41
2018-10-16T00:16:33.681Z,13.31
2018-10-16T00:17:33.585Z,13.22
2018-10-16T00:18:33.505Z,13.21
2018-10-16T00:19:33.396Z,13.24
2018-10-16T00:20:33.304Z,13.25
2018-10-16T00:21:33.206Z,13.24
2018-10-16T00:22:33.114Z,13.24
2018-10-16T00:23:33.038Z,13.27
2018-10-16T00:24:32.924Z,13.27
2018-10-16T00:25:32.829Z,13.28
2018-10-16T00:26:32.736Z,13.21
2018-10-16T00:27:32.637Z,13.12
2018-10-16T00:28:32.547Z,13.01
2018-10-16T00:29:32.468Z,12.88
2018-10-16T00:30:32.355Z,12.87
2018-10-16T00:31:32.262Z,12.89
2018-10-16T00:32:32.190Z,13.06
2018-10-16T00:33:32.072Z,13.06
2018-10-16T00:34:31.993Z,13.07
2018-10-16T00:35:31.884Z,12.99
2018-10-16T00:36:31.786Z,12.99
2018-10-16T00:37:31.694Z,13.03
2018-10-16T00:38:31.609Z,12.92
2018-10-16T00:39:31.522Z,12.95
2018-10-16T00:40:31.415Z,12.91
2018-10-16T00:41:31.316Z,12.91
2018-10-16T00:42:31.226Z,12.88
2018-10-16T00:43:31.128Z,12.80
2018-10-16T00:44:31.050Z,12.81
2018-10-16T00:45:30.946Z,12.84
2018-10-16T00:46:30.844Z,12.81
2018-10-16T00:47:30.751Z,12.67
2018-10-16T00:48:30.650Z,12.70
2018-10-16T00:49:30.573Z,12.63
2018-10-16T00:50:30.463Z,12.61
2018-10-16T00:51:30.366Z,12.61
2018-10-16T00:52:30.273Z,12.69
2018-10-16T00:53:30.180Z,12.66
2018-10-16T00:54:30.141Z,12.67
2018-10-16T00:55:29.986Z,12.63
2018-10-16T00:56:29.894Z,12.79
2018-10-16T00:57:29.800Z,12.71
2018-10-16T00:58:29.705Z,12.80
2018-10-16T00:59:29.624Z,12.81
2018-10-16T01:00:29.516Z,12.85
2018-10-16T01:01:29.419Z,12.63
2018-10-16T01:02:29.320Z,12.84
2018-10-16T01:03:29.234Z,12.70
2018-10-16T01:04:29.150Z,12.66
2018-10-16T01:05:29.041Z,12.66
2018-10-16T01:06:28.941Z,12.55
2018-10-16T01:07:28.850Z,12.51
2018-10-16T01:08:28.753Z,12.46
2018-10-16T01:09:28.677Z,12.40
2018-10-16T01:10:28.562Z,12.36
2018-10-16T01:11:28.468Z,12.31
2018-10-16T01:12:28.376Z,12.13
2018-10-16T01:13:28.381Z,12.16
2018-10-16T01:14:28.204Z,12.05
2018-10-16T01:15:28.090Z,11.96
2018-10-16T01:16:27.996Z,11.97
2018-10-16T01:17:27.902Z,11.84
2018-10-16T01:18:27.807Z,11.81
2018-10-16T01:19:27.730Z,11.77
2018-10-16T01:20:27.730Z,11.70
2018-10-16T01:21:27.522Z,11.78
2018-10-16T01:22:27.428Z,11.84
2018-10-16T01:23:27.334Z,11.79
2018-10-16T01:24:27.252Z,11.67
2018-10-16T01:25:27.140Z,11.69
2018-10-16T01:26:27.044Z,11.70
2018-10-16T01:27:27.050Z,11.59
2018-10-16T01:28:26.857Z,11.53
2018-10-16T01:29:26.779Z,11.36
2018-10-16T01:30:26.667Z,11.33
2018-10-16T01:31:26.574Z,11.24
2018-10-16T01:32:26.475Z,11.16
2018-10-16T01:33:26.383Z,11.01
2018-10-16T01:34:26.404Z,10.86
2018-10-16T01:35:26.193Z,10.80
2018-10-16T01:36:26.099Z,10.86
2018-10-16T01:37:26.003Z,10.88
2018-10-16T01:38:25.904Z,10.81
2018-10-16T01:39:25.833Z,10.95
2018-10-16T01:40:25.716Z,11.13
2018-10-16T01:41:25.729Z,11.08
2018-10-16T01:42:25.531Z,11.09
2018-10-16T01:43:25.430Z,11.08
2018-10-16T01:44:25.353Z,11.03
2018-10-16T01:45:25.246Z,11.06
2018-10-16T01:46:25.154Z,11.08
2018-10-16T01:47:25.051Z,11.06
2018-10-16T01:48:25.058Z,10.98
2018-10-16T01:49:24.879Z,10.95
2018-10-16T01:50:24.770Z,10.86
2018-10-16T01:51:24.670Z,10.84
2018-10-16T01:52:24.581Z,10.76
2018-10-16T01:53:24.485Z,10.68
2018-10-16T01:54:24.405Z,10.72
2018-10-16T01:55:24.392Z,10.72
2018-10-16T01:56:24.198Z,10.76
2018-10-16T01:57:24.099Z,10.81
2018-10-16T01:58:24.005Z,10.72
2018-10-16T01:59:23.931Z,10.69
2018-10-16T02:00:23.817Z,10.76
2018-10-16T02:01:23.721Z,10.88
2018-10-16T02:02:23.780Z,11.21
2018-10-16T02:03:23.531Z,11.27
2018-10-16T02:04:23.453Z,11.42
2018-10-16T02:05:23.342Z,11.56
2018-10-16T02:06:23.242Z,11.51
2018-10-16T02:07:23.147Z,11.60
2018-10-16T02:08:23.056Z,11.66
2018-10-16T02:09:23.091Z,11.64
2018-10-16T02:10:22.863Z,11.69
2018-10-16T02:11:22.773Z,11.77
2018-10-16T02:12:22.674Z,11.74
2018-10-16T02:13:22.579Z,11.67
2018-10-16T02:14:22.487Z,11.66
2018-10-16T02:15:22.406Z,11.63
2018-10-16T02:16:22.393Z,11.70
2018-10-16T02:17:22.202Z,11.70
2018-10-16T02:18:22.102Z,11.85
2018-10-16T02:19:22.025Z,11.90
2018-10-16T02:20:21.931Z,12.08
2018-10-16T02:21:21.817Z,12.18
2018-10-16T02:22:21.735Z,12.23
2018-10-16T02:23:21.631Z,12.40
2018-10-16T02:24:21.535Z,12.36
2018-10-16T02:25:21.461Z,12.34
2018-10-16T02:26:21.345Z,12.40
2018-10-16T02:27:21.248Z,12.40
2018-10-16T02:28:21.153Z,12.40
2018-10-16T02:29:21.065Z,12.37
2018-10-16T02:30:20.978Z,12.25
2018-10-16T02:31:20.870Z,12.26
2018-10-16T02:32:20.775Z,12.22
2018-10-16T02:33:20.679Z,12.18
2018-10-16T02:34:20.585Z,12.07
2018-10-16T02:35:20.505Z,12.04
2018-10-16T02:36:20.488Z,11.96
2018-10-16T02:37:20.298Z,11.94
2018-10-16T02:38:20.200Z,11.88
2018-10-16T02:39:20.109Z,11.77
2018-10-16T02:40:20.044Z,11.70
2018-10-16T02:41:19.921Z,11.56
2018-10-16T02:42:19.824Z,11.51
2018-10-16T02:43:19.745Z,11.48
2018-10-16T02:44:19.637Z,11.41
2018-10-16T02:45:19.555Z,11.33
2018-10-16T02:46:19.451Z,11.17
2018-10-16T02:47:19.357Z,11.12
2018-10-16T02:48:19.257Z,11.03
2018-10-16T02:49:19.177Z,11.08
2018-10-16T02:50:19.081Z,11.27
2018-10-16T02:51:18.971Z,11.44
2018-10-16T02:52:18.882Z,11.56
2018-10-16T02:53:18.783Z,11.59
2018-10-16T02:54:18.687Z,11.78
2018-10-16T02:55:18.604Z,11.90
2018-10-16T02:56:18.498Z,11.93
2018-10-16T02:57:18.405Z,11.97
2018-10-16T02:58:18.307Z,12.03
2018-10-16T02:59:18.211Z,11.94
2018-10-16T03:00:18.132Z,11.96
2018-10-16T03:01:18.024Z,11.96
2018-10-16T03:02:17.926Z,11.97
2018-10-16T03:03:17.832Z,12.01
2018-10-16T03:04:17.739Z,12.07
2018-10-16T03:05:17.662Z,12.01
2018-10-16T03:06:17.545Z,12.07
2018-10-16T03:07:17.454Z,12.11
2018-10-16T03:08:17.356Z,12.13
2018-10-16T03:09:17.265Z,12.04
2018-10-16T03:10:17.184Z,12.01
2018-10-16T03:11:17.069Z,12.00
2018-10-16T03:12:16.976Z,11.94
2018-10-16T03:13:16.881Z,11.88
2018-10-16T03:14:16.788Z,11.97
2018-10-16T03:15:16.710Z,11.96
2018-10-16T03:16:16.595Z,11.90
2018-10-16T03:17:16.500Z,11.84
2018-10-16T03:18:16.410Z,11.81
2018-10-16T03:19:16.310Z,11.94
2018-10-16T03:20:16.304Z,11.97
2018-10-16T03:21:16.124Z,11.90
2018-10-16T03:22:16.030Z,11.85
2018-10-16T03:23:15.932Z,11.75
2018-10-16T03:24:15.835Z,11.77
2018-10-16T03:25:15.763Z,11.77
2018-10-16T03:26:15.645Z,11.74
2018-10-16T03:27:15.548Z,11.72
2018-10-16T03:28:15.456Z,11.74
2018-10-16T03:29:15.365Z,11.66
2018-10-16T03:30:15.284Z,11.77
2018-10-16T03:31:15.177Z,11.84
2018-10-16T03:32:15.075Z,11.79
2018-10-16T03:33:14.985Z,11.74
2018-10-16T03:34:14.884Z,11.67
2018-10-16T03:35:14.806Z,11.56
2018-10-16T03:36:14.702Z,11.56
2018-10-16T03:37:14.602Z,11.46
2018-10-16T03:38:15.296Z,11.41
2018-10-16T03:39:14.410Z,11.56
2018-10-16T03:40:14.329Z,11.70
2018-10-16T03:41:14.220Z,11.69
2018-10-16T03:42:14.127Z,11.77
2018-10-16T03:43:14.031Z,11.72
2018-10-16T03:44:13.934Z,11.66
2018-10-16T03:45:13.857Z,11.64
2018-10-16T03:46:13.746Z,11.60
2018-10-16T03:47:13.649Z,11.60
2018-10-16T03:48:13.558Z,11.62
2018-10-16T03:49:13.465Z,11.53
2018-10-16T03:50:13.380Z,11.51
2018-10-16T03:51:13.270Z,11.49
2018-10-16T03:52:13.178Z,11.51
2018-10-16T03:53:13.178Z,11.48
2018-10-16T03:54:12.983Z,11.36
2018-10-16T03:55:12.909Z,11.33
2018-10-16T03:56:12.796Z,11.33
2018-10-16T03:57:12.729Z,11.21
2018-10-16T03:58:12.601Z,11.19
2018-10-16T03:59:12.509Z,11.19
2018-10-16T04:00:12.540Z,11.20
2018-10-16T04:01:12.338Z,11.24
2018-10-16T04:02:12.228Z,11.38
2018-10-16T04:03:12.127Z,11.38
2018-10-16T04:04:12.036Z,11.42
2018-10-16T04:05:11.948Z,11.39
2018-10-16T04:06:11.860Z,11.44
2018-10-16T04:07:11.850Z,11.49
2018-10-16T04:08:11.655Z,11.48
2018-10-16T04:09:11.565Z,11.45
2018-10-16T04:10:11.468Z,11.41
2018-10-16T04:11:11.386Z,11.39
2018-10-16T04:12:11.276Z,11.41
2018-10-16T04:13:11.181Z,11.54
2018-10-16T04:14:11.191Z,11.53
2018-10-16T04:15:10.992Z,11.53
2018-10-16T04:16:10.897Z,11.56
2018-10-16T04:17:10.801Z,11.54
2018-10-16T04:18:10.690Z,11.49
2018-10-16T04:19:10.606Z,11.45
2018-10-16T04:20:10.506Z,11.54
2018-10-16T04:21:10.526Z,11.53
2018-10-16T04:22:10.316Z,11.57
2018-10-16T04:23:10.217Z,11.54
2018-10-16T04:24:10.121Z,11.59
2018-10-16T04:25:10.027Z,11.59
2018-10-16T04:26:09.944Z,11.64
2018-10-16T04:27:09.834Z,11.64
2018-10-16T04:28:09.843Z,11.54
2018-10-16T04:29:09.680Z,11.56
2018-10-16T04:30:09.558Z,11.53
2018-10-16T04:31:09.476Z,11.63
2018-10-16T04:32:09.360Z,11.51
2018-10-16T04:33:09.274Z,11.46
2018-10-16T04:34:09.169Z,11.57
2018-10-16T04:35:09.186Z,11.56
2018-10-16T04:36:08.998Z,11.41
2018-10-16T04:37:08.883Z,11.41
2018-10-16T04:38:08.791Z,11.27
2018-10-16T04:39:08.690Z,11.16
2018-10-16T04:40:08.601Z,11.17
2018-10-16T04:41:08.525Z,11.11
2018-10-16T04:42:08.513Z,10.98
2018-10-16T04:43:08.317Z,11.02
2018-10-16T04:44:08.217Z,10.95
2018-10-16T04:45:08.123Z,10.98
2018-10-16T04:46:08.040Z,10.98
2018-10-16T04:47:07.934Z,10.98
2018-10-16T04:48:07.839Z,10.95
2018-10-16T04:49:07.857Z,10.91
2018-10-16T04:50:07.651Z,10.90
2018-10-16T04:51:07.570Z,10.84
2018-10-16T04:52:07.458Z,10.76
2018-10-16T04:53:07.358Z,10.65
2018-10-16T04:54:07.261Z,10.63
2018-10-16T04:55:07.234Z,10.65
2018-10-16T04:56:07.194Z,10.60
2018-10-16T04:57:06.979Z,10.78
2018-10-16T04:58:06.884Z,10.72
2018-10-16T04:59:06.800Z,10.80
2018-10-16T05:00:06.698Z,10.88
2018-10-16T05:01:06.614Z,10.86
2018-10-16T05:02:06.500Z,10.98
2018-10-16T05:03:06.507Z,10.93
2018-10-16T05:04:06.334Z,11.05
2018-10-16T05:05:06.218Z,11.06
2018-10-16T05:06:06.138Z,11.12
2018-10-16T05:07:06.026Z,11.12
2018-10-16T05:08:05.931Z,11.20
2018-10-16T05:09:05.833Z,11.23
2018-10-16T05:10:05.745Z,11.19
2018-10-16T05:11:05.660Z,11.21
2018-10-16T05:12:05.547Z,11.19
2018-10-16T05:13:05.510Z,11.16
2018-10-16T05:14:05.357Z,11.16
2018-10-16T05:15:05.262Z,11.17
2018-10-16T05:16:05.198Z,11.16
2018-10-16T05:17:05.075Z,11.16
2018-10-16T05:18:04.972Z,11.16
2018-10-16T05:19:04.912Z,11.17
2018-10-16T05:20:04.782Z,11.21
2018-10-16T05:21:04.708Z,11.19
2018-10-16T05:22:04.590Z,11.21
2018-10-16T05:23:04.499Z,11.21
2018-10-16T05:24:04.404Z,11.23
2018-10-16T05:25:04.309Z,11.16
2018-10-16T05:26:04.225Z,11.19
2018-10-16T05:27:04.115Z,11.11
2018-10-16T05:28:04.027Z,11.03
2018-10-16T05:29:03.921Z,11.01
2018-10-16T05:30:03.826Z,10.95
2018-10-16T05:31:03.812Z,10.83
2018-10-16T05:32:03.638Z,10.88
2018-10-16T05:33:03.544Z,10.76
2018-10-16T05:34:03.444Z,10.66
2018-10-16T05:35:03.353Z,10.63
2018-10-16T05:36:03.270Z,10.68
2018-10-16T05:37:03.164Z,10.63
2018-10-16T05:38:03.062Z,10.60
2018-10-16T05:39:02.978Z,10.43
2018-10-16T05:40:02.876Z,10.43
2018-10-16T05:41:02.798Z,10.35
2018-10-16T05:42:02.683Z,10.36
2018-10-16T05:43:02.589Z,10.42
2018-10-16T05:44:02.493Z,10.39
2018-10-16T05:45:02.400Z,10.34
2018-10-16T05:46:02.317Z,10.44
2018-10-16T05:47:02.251Z,10.54
2018-10-16T05:48:02.115Z,10.63
2018-10-16T05:49:02.019Z,10.65
2018-10-16T05:50:01.920Z,10.68
2018-10-16T05:51:01.825Z,10.75
2018-10-16T05:52:01.768Z,10.75
2018-10-16T05:53:01.636Z,10.69
2018-10-16T05:54:01.538Z,10.76
2018-10-16T05:55:01.441Z,10.69
2018-10-16T05:56:01.358Z,10.70
2018-10-16T05:57:01.272Z,10.65
2018-10-16T05:58:01.154Z,10.63
2018-10-16T05:59:01.060Z,10.68
2018-10-16T06:00:00.968Z,10.72
2018-10-16T06:01:00.873Z,10.57
2018-10-16T06:02:00.789Z,10.63
2018-10-16T06:03:00.680Z,10.60
2018-10-16T06:04:00.585Z,10.52
2018-10-16T06:05:00.491Z,10.63
2018-10-16T06:06:00.398Z,10.62
2018-10-16T06:07:00.317Z,10.63
2018-10-16T06:08:00.203Z,10.60
2018-10-16T06:09:00.111Z,10.60
2018-10-16T06:10:00.015Z,10.63
2018-10-16T06:10:59.945Z,10.58
2018-10-16T06:11:59.837Z,10.60
2018-10-16T06:12:59.732Z,10.65
2018-10-16T06:13:59.630Z,10.66
2018-10-16T06:14:59.535Z,10.78
2018-10-16T06:15:59.457Z,10.76
2018-10-16T06:16:59.365Z,10.98
2018-10-16T06:17:59.250Z,11.06
2018-10-16T06:18:59.158Z,11.13
2018-10-16T06:19:59.061Z,11.31
2018-10-16T06:20:58.967Z,11.33
2018-10-16T06:21:58.885Z,11.42
2018-10-16T06:22:58.776Z,11.51
2018-10-16T06:23:58.683Z,11.62
2018-10-16T06:24:58.587Z,11.69
2018-10-16T06:25:58.492Z,11.75
2018-10-16T06:26:58.414Z,11.93
2018-10-16T06:27:58.298Z,11.90
2018-10-16T06:28:58.204Z,11.93
2018-10-16T06:29:58.107Z,12.00
2018-10-16T06:30:58.016Z,12.00
2018-10-16T06:31:57.938Z,12.08
2018-10-16T06:32:57.825Z,12.04
2018-10-16T06:33:57.729Z,12.15
2018-10-16T06:34:57.632Z,12.16
2018-10-16T06:35:57.541Z,12.11
2018-10-16T06:36:57.461Z,12.18
2018-10-16T06:37:57.350Z,12.16
2018-10-16T06:38:57.256Z,12.12
2018-10-16T06:39:57.157Z,12.15
2018-10-16T06:40:57.094Z,12.11
2018-10-16T06:41:56.983Z,12.13
2018-10-16T06:42:56.875Z,12.23
2018-10-16T06:43:56.823Z,12.26
2018-10-16T06:44:56.684Z,12.37
2018-10-16T06:45:56.586Z,12.36
2018-10-16T06:46:56.516Z,12.36
2018-10-16T06:47:56.411Z,12.40
2018-10-16T06:48:56.595Z,12.37
2018-10-16T06:49:56.206Z,12.38
2018-10-16T06:50:56.112Z,12.40
2018-10-16T06:51:56.034Z,12.49
2018-10-16T06:52:55.929Z,12.41
2018-10-16T06:53:55.832Z,12.43
2018-10-16T06:54:55.839Z,12.41
2018-10-16T06:55:55.638Z,12.48
2018-10-16T06:56:55.563Z,12.44
2018-10-16T06:57:55.449Z,12.49
2018-10-16T06:58:55.354Z,12.55
2018-10-16T06:59:55.261Z,12.58
2018-10-16T07:00:55.167Z,12.58
2018-10-16T07:01:55.190Z,12.62
2018-10-16T07:02:54.974Z,12.58
2018-10-16T07:03:54.880Z,12.63
2018-10-16T07:04:54.792Z,12.62
2018-10-16T07:05:54.690Z,12.61
2018-10-16T07:06:54.641Z,12.70
2018-10-16T07:07:54.503Z,12.61
2018-10-16T07:08:54.511Z,12.61
2018-10-16T07:09:54.314Z,12.58
2018-10-16T07:10:54.222Z,12.54
2018-10-16T07:11:54.141Z,12.55
2018-10-16T07:12:54.030Z,12.59
2018-10-16T07:13:53.937Z,12.66
2018-10-16T07:14:53.872Z,12.67
2018-10-16T07:15:53.852Z,12.67
2018-10-16T07:16:53.673Z,12.70
2018-10-16T07:17:53.558Z,12.70
2018-10-16T07:18:53.469Z,12.79
2018-10-16T07:19:53.371Z,12.81
2018-10-16T07:20:53.283Z,12.76
2018-10-16T07:21:53.198Z,12.79
2018-10-16T07:22:53.191Z,12.81
2018-10-16T07:23:53.062Z,12.85
2018-10-16T07:24:52.900Z,12.79
2018-10-16T07:25:52.806Z,12.87
2018-10-16T07:26:52.729Z,12.87
2018-10-16T07:27:52.619Z,12.89
2018-10-16T07:28:52.544Z,12.94
2018-10-16T07:29:52.576Z,12.88
2018-10-16T07:30:52.335Z,12.84
2018-10-16T07:31:52.248Z,12.88
2018-10-16T07:32:52.169Z,12.87
2018-10-16T07:33:52.055Z,12.87
2018-10-16T07:34:51.964Z,12.89
2018-10-16T07:35:51.868Z,12.91
2018-10-16T07:36:51.900Z,12.94
2018-10-16T07:37:51.818Z,12.92
2018-10-16T07:38:51.649Z,13.03
2018-10-16T07:39:51.491Z,12.98
2018-10-16T07:40:51.403Z,13.07
2018-10-16T07:41:51.400Z,13.03
2018-10-16T07:42:51.225Z,13.01
2018-10-16T07:43:51.231Z,13.13
2018-10-16T07:44:51.024Z,13.17
2018-10-16T07:45:50.929Z,13.24
2018-10-16T07:46:50.837Z,13.31
2018-10-16T07:47:50.809Z,13.36
2018-10-16T07:48:50.666Z,13.38
2018-10-16T07:49:50.584Z,13.54
2018-10-16T07:50:50.458Z,13.59
2018-10-16T07:51:50.368Z,13.68
2018-10-16T07:52:50.308Z,13.59
2018-10-16T07:53:50.178Z,13.73
2018-10-16T07:54:50.085Z,13.94
2018-10-16T07:55:49.997Z,13.98
2018-10-16T07:56:49.903Z,14.05
2018-10-16T07:57:49.819Z,14.05
2018-10-16T07:58:49.713Z,14.20
2018-10-16T07:59:49.616Z,14.20
2018-10-16T08:00:49.537Z,14.29
2018-10-16T08:01:49.450Z,14.29
2018-10-16T08:02:49.404Z,14.39
2018-10-16T08:03:49.247Z,14.38
2018-10-16T08:04:49.154Z,14.45
2018-10-16T08:05:49.062Z,14.44
2018-10-16T08:06:48.967Z,14.44
2018-10-16T08:07:48.892Z,14.44
2018-10-16T08:08:48.803Z,14.46
2018-10-16T08:09:48.691Z,14.41
2018-10-16T08:10:48.597Z,14.36
2018-10-16T08:11:48.504Z,14.31
2018-10-16T08:12:48.434Z,14.19
2018-10-16T08:13:48.320Z,14.16
2018-10-16T08:14:48.229Z,14.11
2018-10-16T08:15:48.138Z,14.12
2018-10-16T08:16:48.046Z,14.06
2018-10-16T08:17:47.968Z,14.01
2018-10-16T08:18:47.874Z,13.94
2018-10-16T08:19:47.766Z,14.04
2018-10-16T08:20:47.688Z,13.86
2018-10-16T08:21:47.582Z,13.87
2018-10-16T08:22:47.503Z,13.87
2018-10-16T08:23:47.398Z,13.84
2018-10-16T08:24:47.305Z,13.93
2018-10-16T08:25:47.210Z,13.94
2018-10-16T08:26:47.158Z,13.90
2018-10-16T08:27:47.047Z,13.98
2018-10-16T08:28:46.941Z,14.04
2018-10-16T08:29:46.843Z,13.99
2018-10-16T08:30:46.749Z,14.04
2018-10-16T08:31:46.653Z,13.99
2018-10-16T08:32:46.579Z,14.05
2018-10-16T08:33:46.471Z,14.17
2018-10-16T08:34:46.380Z,14.57
2018-10-16T08:35:46.354Z,14.91
2018-10-16T08:36:46.240Z,15.22
2018-10-16T08:37:46.141Z,15.37
2018-10-16T08:38:46.009Z,15.64
2018-10-16T08:39:45.916Z,16.57
2018-10-16T08:40:45.822Z,17.22
2018-10-16T08:41:45.802Z,17.76
2018-10-16T08:42:45.661Z,17.62
2018-10-16T08:43:45.551Z,18.07
2018-10-16T08:44:45.471Z,18.11
2018-10-16T08:45:45.367Z,18.75
2018-10-16T08:46:45.276Z,18.82
2018-10-16T08:47:45.201Z,19.05
2018-10-16T08:48:45.097Z,19.32
2018-10-16T08:49:45.019Z,19.55
2018-10-16T08:50:44.918Z,19.79
2018-10-16T08:51:44.830Z,20.31
2018-10-16T08:52:44.858Z,20.58
2018-10-16T08:53:44.651Z,20.53
2018-10-16T08:54:44.588Z,20.96
2018-10-16T08:55:44.475Z,21.11
2018-10-16T08:56:44.386Z,21.46
2018-10-16T08:57:44.313Z,21.36
2018-10-16T08:58:44.210Z,21.13
2018-10-16T08:59:44.244Z,20.83
2018-10-16T09:00:44.033Z,20.93
2018-10-16T09:01:43.945Z,20.90
2018-10-16T09:02:43.876Z,21.11
2018-10-16T09:03:43.775Z,21.40
2018-10-16T09:04:43.688Z,20.75
2018-10-16T09:05:43.601Z,21.33
2018-10-16T09:06:43.633Z,21.55
2018-10-16T09:07:43.443Z,21.71
2018-10-16T09:08:43.342Z,21.42
2018-10-16T09:09:43.255Z,21.16
2018-10-16T09:10:43.185Z,21.34
2018-10-16T09:11:43.087Z,21.11
2018-10-16T09:12:43.017Z,21.53
2018-10-16T09:13:43.020Z,21.18
2018-10-16T09:14:42.830Z,21.70
2018-10-16T09:15:42.745Z,21.45
2018-10-16T09:16:42.661Z,22.12
2018-10-16T09:17:42.592Z,22.36
2018-10-16T09:18:42.491Z,22.02
2018-10-16T09:19:42.408Z,21.22
2018-10-16T09:20:42.425Z,19.76
2018-10-16T09:21:42.258Z,19.87
2018-10-16T09:22:42.153Z,20.61
2018-10-16T09:23:42.084Z,20.83
2018-10-16T09:24:42.041Z,21.24
2018-10-16T09:25:41.899Z,21.64
2018-10-16T09:26:41.812Z,22.46
2018-10-16T09:27:41.837Z,22.30
2018-10-16T09:28:41.661Z,22.46
2018-10-16T09:29:41.565Z,22.24
2018-10-16T09:30:41.507Z,22.39
2018-10-16T09:31:41.393Z,22.60
2018-10-16T09:32:41.327Z,21.67
2018-10-16T09:33:41.243Z,20.26
2018-10-16T09:34:41.244Z,20.07
2018-10-16T09:35:41.055Z,20.46
2018-10-16T09:36:40.982Z,21.03
2018-10-16T09:37:40.994Z,21.71
2018-10-16T09:38:40.822Z,21.00
2018-10-16T09:39:40.721Z,21.83
2018-10-16T09:40:40.643Z,21.67
2018-10-16T09:41:40.655Z,21.52
2018-10-16T09:42:40.472Z,22.02
2018-10-16T09:43:40.406Z,22.29
2018-10-16T09:44:40.306Z,22.97
2018-10-16T09:45:40.225Z,23.77
2018-10-16T09:46:40.140Z,24.39
2018-10-16T09:47:40.057Z,24.66
2018-10-16T09:48:40.093Z,24.26
2018-10-16T09:49:40.009Z,23.87
2018-10-16T09:50:39.806Z,23.81
2018-10-16T09:51:39.726Z,22.86
2018-10-16T09:52:39.641Z,22.45
2018-10-16T09:53:39.575Z,21.27
2018-10-16T09:54:39.581Z,19.97
2018-10-16T09:55:39.396Z,19.15
2018-10-16T09:56:39.311Z,19.10
2018-10-16T09:57:39.228Z,19.13
2018-10-16T09:58:39.162Z,19.40
2018-10-16T09:59:39.058Z,19.42
2018-10-16T10:00:38.982Z,19.46
2018-10-16T10:01:38.894Z,19.47
2018-10-16T10:02:38.920Z,19.35
2018-10-16T10:03:38.742Z,18.76
2018-10-16T10:04:38.642Z,18.68
2018-10-16T10:05:38.551Z,18.57
2018-10-16T10:06:38.471Z,18.13
2018-10-16T10:07:38.387Z,18.09
2018-10-16T10:08:38.319Z,17.77
2018-10-16T10:09:38.212Z,17.66
2018-10-16T10:10:38.132Z,17.58
2018-10-16T10:11:38.046Z,17.28
2018-10-16T10:12:37.955Z,17.32
2018-10-16T10:13:37.887Z,17.45
2018-10-16T10:14:37.786Z,17.32
2018-10-16T10:15:37.699Z,17.22
2018-10-16T10:16:37.614Z,17.12
2018-10-16T10:17:37.526Z,17.02
2018-10-16T10:18:37.458Z,16.99
2018-10-16T10:19:37.355Z,16.82
2018-10-16T10:20:37.263Z,16.77
2018-10-16T10:21:37.177Z,16.82
2018-10-16T10:22:37.093Z,16.70
2018-10-16T10:23:37.021Z,16.59
2018-10-16T10:24:36.915Z,16.82
2018-10-16T10:25:36.829Z,16.81
2018-10-16T10:26:36.740Z,16.85
2018-10-16T10:27:36.654Z,16.90
2018-10-16T10:28:36.598Z,17.10
2018-10-16T10:29:36.492Z,17.06
2018-10-16T10:30:36.388Z,17.05
2018-10-16T10:31:36.301Z,16.88
2018-10-16T10:32:36.214Z,17.20
2018-10-16T10:33:36.142Z,18.19
2018-10-16T10:34:36.034Z,18.13
2018-10-16T10:35:36.063Z,17.80
2018-10-16T10:36:35.858Z,17.60
2018-10-16T10:37:35.771Z,17.35
2018-10-16T10:38:35.701Z,17.24
2018-10-16T10:39:35.594Z,17.39
2018-10-16T10:40:35.506Z,17.33
2018-10-16T10:41:35.415Z,17.28
2018-10-16T10:42:35.330Z,17.02
2018-10-16T10:43:35.256Z,17.00
2018-10-16T10:44:35.152Z,17.03
2018-10-16T10:45:35.070Z,17.05
2018-10-16T10:46:34.976Z,17.21
2018-10-16T10:47:34.895Z,17.22
2018-10-16T10:48:34.811Z,17.07
2018-10-16T10:49:34.712Z,17.06
2018-10-16T10:50:34.854Z,17.12
2018-10-16T10:51:34.798Z,17.17
2018-10-16T10:52:34.444Z,17.09
2018-10-16T10:53:34.373Z,16.91
2018-10-16T10:54:34.269Z,17.05
2018-10-16T10:55:34.176Z,16.99
2018-10-16T10:56:34.148Z,16.99
2018-10-16T10:57:34.008Z,17.10
2018-10-16T10:58:33.927Z,17.21
2018-10-16T10:59:33.820Z,17.81
2018-10-16T11:00:33.733Z,18.21
2018-10-16T11:01:33.642Z,18.66
2018-10-16T11:02:33.554Z,18.97
2018-10-16T11:03:33.634Z,19.35
2018-10-16T11:04:33.380Z,19.46
2018-10-16T11:05:33.287Z,19.30
2018-10-16T11:06:33.202Z,19.57
2018-10-16T11:07:33.112Z,19.25
2018-10-16T11:08:33.040Z,19.10
2018-10-16T11:09:32.934Z,18.97
2018-10-16T11:10:32.851Z,18.68
2018-10-16T11:11:32.764Z,18.54
2018-10-16T11:12:32.669Z,18.09
2018-10-16T11:13:32.600Z,17.91
2018-10-16T11:14:32.496Z,17.86
2018-10-16T11:15:32.410Z,17.77
2018-10-16T11:16:32.323Z,17.95
2018-10-16T11:17:32.232Z,17.79
2018-10-16T11:18:32.143Z,18.02
2018-10-16T11:19:32.126Z,18.74
2018-10-16T11:20:31.967Z,19.75
2018-10-16T11:21:31.876Z,20.23
2018-10-16T11:22:31.788Z,21.05
2018-10-16T11:23:31.707Z,21.77
2018-10-16T11:24:31.629Z,22.46
2018-10-16T11:25:31.639Z,22.81
2018-10-16T11:26:31.440Z,22.88
2018-10-16T11:27:31.351Z,23.07
2018-10-16T11:28:31.268Z,23.54
2018-10-16T11:29:31.196Z,23.63
2018-10-16T11:30:31.091Z,23.26
2018-10-16T11:31:31.010Z,22.39
2018-10-16T11:32:31.049Z,22.99
2018-10-16T11:33:30.836Z,23.06
2018-10-16T11:34:30.767Z,22.94
2018-10-16T11:35:30.663Z,22.91
2018-10-16T11:36:30.579Z,23.78
2018-10-16T11:37:30.495Z,24.15
2018-10-16T11:38:30.414Z,23.81
2018-10-16T11:39:30.440Z,23.18
2018-10-16T11:40:30.242Z,23.03
2018-10-16T11:41:30.155Z,23.47
2018-10-16T11:42:30.075Z,23.19
2018-10-16T11:43:30.928Z,23.42
2018-10-16T11:44:29.918Z,23.53
2018-10-16T11:45:29.819Z,23.18
2018-10-16T11:46:29.833Z,22.44
2018-10-16T11:47:29.657Z,22.05
2018-10-16T11:48:29.567Z,21.46
2018-10-16T11:49:29.501Z,20.87
2018-10-16T11:50:29.398Z,21.13
2018-10-16T11:51:29.314Z,21.49
2018-10-16T11:52:29.231Z,21.71
2018-10-16T11:53:29.150Z,21.46
2018-10-16T11:54:29.083Z,21.12
2018-10-16T11:55:28.979Z,21.05
2018-10-16T11:56:28.899Z,21.11
2018-10-16T11:57:28.810Z,21.05
2018-10-16T11:58:28.727Z,20.83
2018-10-16T11:59:28.657Z,20.56
2018-10-16T12:00:28.557Z,20.40
2018-10-16T12:01:28.475Z,19.94
2018-10-16T12:02:28.432Z,19.71
2018-10-16T12:03:28.304Z,19.70
2018-10-16T12:04:28.236Z,19.62
2018-10-16T12:05:28.133Z,19.60
2018-10-16T12:06:28.046Z,19.64
2018-10-16T12:07:27.959Z,19.55
2018-10-16T12:08:27.884Z,19.50
2018-10-16T12:09:27.805Z,19.40
2018-10-16T12:10:27.734Z,19.42
2018-10-16T12:11:27.620Z,19.38
2018-10-16T12:12:27.529Z,19.45
2018-10-16T12:13:27.446Z,19.46
2018-10-16T12:14:27.373Z,19.07
2018-10-16T12:15:27.272Z,18.69
2018-10-16T12:16:27.188Z,18.41
2018-10-16T12:17:27.115Z,18.11
2018-10-16T12:18:27.010Z,18.02
2018-10-16T12:19:27.001Z,17.80
2018-10-16T12:20:26.837Z,17.76
2018-10-16T12:21:26.750Z,17.62
2018-10-16T12:22:26.962Z,17.60
2018-10-16T12:23:26.583Z,17.43
2018-10-16T12:24:26.504Z,17.45
2018-10-16T12:25:26.396Z,17.43
2018-10-16T12:26:26.309Z,17.43
2018-10-16T12:27:26.223Z,17.39
2018-10-16T12:28:26.135Z,17.47
2018-10-16T12:29:26.164Z,17.49
2018-10-16T12:30:25.957Z,17.46
2018-10-16T12:31:25.869Z,17.49
2018-10-16T12:32:25.784Z,17.55
2018-10-16T12:33:25.692Z,17.51
2018-10-16T12:34:25.621Z,17.54
2018-10-16T12:35:25.514Z,17.55
2018-10-16T12:36:25.528Z,17.55
2018-10-16T12:37:25.339Z,17.57
2018-10-16T12:38:25.336Z,17.66
2018-10-16T12:39:25.179Z,17.63
2018-10-16T12:40:25.073Z,17.79
2018-10-16T12:41:24.988Z,17.71
2018-10-16T12:42:24.893Z,17.71
2018-10-16T12:43:24.953Z,17.70
2018-10-16T12:44:24.733Z,17.81
2018-10-16T12:45:24.627Z,17.84
2018-10-16T12:46:24.545Z,17.80
2018-10-16T12:47:24.448Z,17.83
2018-10-16T12:48:24.360Z,17.76
2018-10-16T12:49:24.286Z,17.79
2018-10-16T12:50:24.307Z,17.79
2018-10-16T12:51:24.092Z,17.77